createdAt,value
2023-05-02T00:01:20.362Z,16.1
2023-05-02T00:06:20.384Z,16.2
2023-05-02T00:11:20.350Z,16
2023-05-02T00:16:20.355Z,16.2
2023-05-02T00:21:20.362Z,16.4
2023-05-02T00:26:20.364Z,16.4
2023-05-02T00:31:20.360Z,16.7
2023-05-02T00:36:20.537Z,16.7
2023-05-02T00:41:20.359Z,17.1
2023-05-02T00:46:20.347Z,17.9
2023-05-02T00:51:20.377Z,17.9
2023-05-02T00:56:20.316Z,18.1
2023-05-02T01:01:20.380Z,18.4
2023-05-02T01:06:20.425Z,18.7
2023-05-02T01:11:20.344Z,19.5
2023-05-02T01:16:20.499Z,19.5
2023-05-02T01:21:20.383Z,19.7
2023-05-02T01:26:20.335Z,19.9
2023-05-02T01:31:20.378Z,20.1
2023-05-02T01:36:20.423Z,20.5
2023-05-02T01:41:20.364Z,20.5
2023-05-02T01:46:20.344Z,20.4
2023-05-02T01:51:20.336Z,20.5
2023-05-02T01:56:20.351Z,20.7
2023-05-02T02:01:20.444Z,20.9
2023-05-02T02:06:20.423Z,20.9
2023-05-02T02:11:20.311Z,21.9
2023-05-02T02:16:20.386Z,22.8
2023-05-02T02:21:20.326Z,23.3
2023-05-02T02:26:20.384Z,23.4
2023-05-02T02:31:20.402Z,24
2023-05-02T02:36:20.428Z,23.4
2023-05-02T02:41:20.329Z,23.3
2023-05-02T02:46:20.465Z,22.8
2023-05-02T02:51:20.310Z,23
2023-05-02T02:56:20.353Z,23
2023-05-02T03:01:20.378Z,22.5
2023-05-02T03:06:20.389Z,22.4
2023-05-02T03:11:20.365Z,22.3
2023-05-02T03:16:20.460Z,22
2023-05-02T03:21:20.359Z,22
2023-05-02T03:26:20.493Z,21.6
2023-05-02T03:31:20.346Z,21.6
2023-05-02T03:36:20.331Z,21.6
2023-05-02T03:41:20.342Z,21.5
2023-05-02T03:46:20.380Z,21.6
2023-05-02T03:51:20.338Z,21.4
2023-05-02T03:56:20.457Z,19.9
2023-05-02T04:01:20.390Z,19.9
2023-05-02T04:06:20.380Z,20.4
2023-05-02T04:11:20.363Z,20.4
2023-05-02T04:16:20.429Z,22.3
2023-05-02T04:21:20.399Z,23.3
2023-05-02T04:26:20.405Z,23.8
2023-05-02T04:31:20.486Z,24.8
2023-05-02T04:36:20.350Z,24.9
2023-05-02T04:41:20.380Z,25.7
2023-05-02T04:46:20.357Z,26.3
2023-05-02T04:51:20.390Z,28.3
2023-05-02T04:56:20.374Z,28.5
2023-05-02T05:01:20.535Z,28.5
2023-05-02T05:06:20.455Z,28.5
2023-05-02T05:11:20.377Z,28.5
2023-05-02T05:16:20.373Z,27.9
2023-05-02T05:21:20.376Z,25.3
2023-05-02T05:26:20.452Z,24.3
2023-05-02T05:31:20.438Z,23.1
2023-05-02T05:36:23.614Z,22.8
2023-05-02T05:41:20.392Z,21.5
2023-05-02T05:46:20.430Z,20.7
2023-05-02T05:51:20.379Z,19.8
2023-05-02T05:56:20.384Z,18.4
2023-05-02T06:01:20.415Z,18.2
2023-05-02T06:06:20.562Z,17.6
2023-05-02T06:11:21.693Z,16.7
2023-05-02T06:16:20.421Z,16.3
2023-05-02T06:21:20.433Z,15.9
2023-05-02T06:26:20.347Z,15.5
2023-05-02T06:31:20.387Z,15.1
2023-05-02T06:36:20.414Z,14.9
2023-05-02T06:41:20.351Z,14.5
2023-05-02T06:46:20.495Z,14.3
2023-05-02T06:51:20.425Z,14.3
2023-05-02T06:56:20.445Z,14.2
2023-05-02T07:01:20.439Z,14.3
2023-05-02T07:06:20.450Z,14.3
2023-05-02T07:11:20.410Z,14.3
2023-05-02T07:16:20.436Z,14.3
2023-05-02T07:21:20.367Z,14.5
2023-05-02T07:26:20.400Z,14.3
2023-05-02T07:31:20.608Z,14.3
2023-05-02T07:36:20.521Z,13.9
2023-05-02T07:41:20.415Z,13.2
2023-05-02T07:46:20.420Z,13.9
2023-05-02T07:51:20.375Z,13.2
2023-05-02T07:56:20.349Z,13.2
2023-05-02T08:01:20.428Z,13.2
2023-05-02T08:06:20.411Z,13.2
2023-05-02T08:11:21.951Z,13.9
2023-05-02T08:16:20.511Z,14.1
2023-05-02T08:21:20.412Z,13.9
2023-05-02T08:26:20.472Z,14.1
2023-05-02T08:31:20.397Z,14.2
2023-05-02T08:36:20.422Z,14.1
2023-05-02T08:41:20.408Z,14.1
2023-05-02T08:46:20.410Z,13.9
2023-05-02T08:56:20.444Z,13.9
2023-05-02T09:01:23.468Z,13.9
2023-05-02T09:06:23.458Z,13.8
2023-05-02T09:11:23.405Z,13.8
2023-05-02T09:16:23.496Z,14.2
2023-05-02T09:21:23.411Z,14.2
2023-05-02T09:26:23.417Z,14.2
2023-05-02T09:31:44.196Z,13.8
2023-05-02T09:36:23.410Z,13.6
2023-05-02T09:41:23.453Z,11.7
2023-05-02T09:46:23.417Z,11.6
2023-05-02T09:51:23.431Z,11.4
2023-05-02T09:56:26.106Z,10.8
2023-05-02T10:01:23.398Z,10
2023-05-02T10:06:23.437Z,9.6
2023-05-02T10:11:23.480Z,9
2023-05-02T10:16:23.484Z,9
2023-05-02T10:21:23.429Z,7.8
2023-05-02T10:26:23.416Z,7.5
2023-05-02T10:31:23.472Z,7.5
2023-05-02T10:36:23.369Z,7.5
2023-05-02T10:41:23.436Z,7.5
2023-05-02T10:46:23.437Z,7.5
2023-05-02T10:51:23.372Z,8
2023-05-02T10:56:23.457Z,8
2023-05-02T11:01:23.506Z,8
2023-05-02T11:06:23.434Z,8.2
2023-05-02T11:11:23.406Z,8
2023-05-02T11:16:23.453Z,8
2023-05-02T11:21:23.411Z,8.1
2023-05-02T11:26:23.881Z,7.9
2023-05-02T11:31:23.452Z,8.1
2023-05-02T11:36:23.442Z,7.9
2023-05-02T11:41:23.412Z,7.7
2023-05-02T11:46:23.506Z,7.7
2023-05-02T11:51:23.531Z,7.1
2023-05-02T11:56:23.849Z,6.5
2023-05-02T12:01:23.417Z,5.3
2023-05-02T12:06:23.600Z,5.2
2023-05-02T12:11:23.894Z,5.2
2023-05-02T12:16:23.469Z,5.2
2023-05-02T12:21:23.473Z,5.3
2023-05-02T12:26:23.469Z,5.6
2023-05-02T12:31:23.496Z,6
2023-05-02T12:36:23.448Z,6.1
2023-05-02T12:41:23.411Z,6.2
2023-05-02T12:46:23.507Z,6.2
2023-05-02T12:51:23.491Z,6.2
2023-05-02T12:56:23.392Z,6
2023-05-02T13:01:23.475Z,6.2
2023-05-02T13:06:23.495Z,5.7
2023-05-02T13:11:23.500Z,5.7
2023-05-02T13:16:23.526Z,5.4
2023-05-02T13:21:23.484Z,4.8
2023-05-02T13:26:23.470Z,4.7
2023-05-02T13:31:23.495Z,4.5
2023-05-02T13:36:23.430Z,4.3
2023-05-02T13:41:23.447Z,4.3
2023-05-02T13:46:23.488Z,4.3
2023-05-02T13:51:23.526Z,3.9
2023-05-02T13:56:23.466Z,3.7
2023-05-02T14:01:23.472Z,3.7
2023-05-02T14:06:23.507Z,3.7
2023-05-02T14:11:23.444Z,3.6
2023-05-02T14:16:23.563Z,3.4
2023-05-02T14:21:23.507Z,3.4
2023-05-02T14:26:23.496Z,3.5
2023-05-02T14:31:23.560Z,3.6
2023-05-02T14:36:23.523Z,3.5
2023-05-02T14:41:23.467Z,3.5
2023-05-02T14:46:23.530Z,3.4
2023-05-02T14:51:23.446Z,3
2023-05-02T14:56:23.455Z,3
2023-05-02T15:01:23.499Z,2.7
2023-05-02T15:06:23.593Z,2.7
2023-05-02T15:17:42.445Z,2.4
2023-05-02T15:22:42.468Z,2.4
2023-05-02T15:27:42.506Z,2.4
2023-05-02T15:32:42.491Z,2.55
2023-05-02T15:37:42.554Z,2.5
2023-05-02T15:42:42.640Z,2.45
2023-05-02T15:47:42.505Z,2.5
2023-05-02T15:52:42.437Z,2.5
2023-05-02T15:57:42.392Z,2.5
2023-05-02T16:02:42.468Z,2.3
2023-05-02T16:07:42.422Z,2.1
2023-05-02T16:12:42.458Z,2.1
2023-05-02T16:17:42.453Z,2
2023-05-02T16:22:42.486Z,1.9
2023-05-02T16:27:42.440Z,1.9
2023-05-02T16:32:42.503Z,1.9
2023-05-02T16:37:42.423Z,1.9
2023-05-02T16:42:42.447Z,1.9
2023-05-02T16:47:42.484Z,1.9
2023-05-02T16:52:42.452Z,1.9
2023-05-02T16:57:42.439Z,2
2023-05-02T17:02:42.521Z,2
2023-05-02T17:07:42.421Z,2
2023-05-02T17:12:42.508Z,2.2
2023-05-02T17:17:42.470Z,2.4
2023-05-02T17:22:42.472Z,2.8
2023-05-02T17:27:43.462Z,2.8
2023-05-02T17:32:42.520Z,10.6
2023-05-02T17:37:42.445Z,14.3
2023-05-02T17:42:42.532Z,14.3
2023-05-02T17:47:42.432Z,20.3
2023-05-02T17:52:42.460Z,20.3
2023-05-02T17:57:42.449Z,20.3
2023-05-02T18:02:42.521Z,13.1
2023-05-02T18:07:42.477Z,6.6
2023-05-02T18:12:42.484Z,6.6
2023-05-02T18:17:42.498Z,5.5
2023-05-02T18:22:42.446Z,5.3
2023-05-02T18:27:42.462Z,4.3
2023-05-02T18:32:42.568Z,4.6
2023-05-02T18:37:42.629Z,4.8
2023-05-02T18:42:42.500Z,5.3
2023-05-02T18:47:42.524Z,5.3
2023-05-02T18:52:42.473Z,4.8
2023-05-02T18:57:42.489Z,4.6
2023-05-02T19:02:42.566Z,4.6
2023-05-02T19:07:42.546Z,4.6
2023-05-02T19:12:44.484Z,4.4
2023-05-02T19:17:42.507Z,4.2
2023-05-02T19:22:42.563Z,4.2
2023-05-02T19:27:42.518Z,4.2
2023-05-02T19:32:42.527Z,4.1
2023-05-02T19:37:42.524Z,3.8
2023-05-02T19:42:42.500Z,3.7
2023-05-02T19:47:42.525Z,3.8
2023-05-02T19:52:42.520Z,4.1
2023-05-02T19:57:42.484Z,4.1
2023-05-02T20:02:42.601Z,4
2023-05-02T20:07:42.460Z,4.1
2023-05-02T20:12:42.513Z,4.4
2023-05-02T20:17:42.505Z,4.4
2023-05-02T20:22:42.500Z,4.5
2023-05-02T20:27:42.467Z,4.5
2023-05-02T20:32:42.492Z,4.5
2023-05-02T20:37:42.538Z,5.5
2023-05-02T20:42:42.546Z,6.6
2023-05-02T20:47:42.533Z,6.8
2023-05-02T20:52:42.511Z,6.8
2023-05-02T20:57:42.514Z,6.8
2023-05-02T21:02:42.513Z,6.6
2023-05-02T21:07:42.532Z,6.5
2023-05-02T21:12:42.525Z,6.1
2023-05-02T21:17:42.545Z,5.4
2023-05-02T21:22:42.515Z,5.4
2023-05-02T21:27:42.545Z,5.4
2023-05-02T21:32:42.546Z,5.4
2023-05-02T21:37:42.482Z,5.5
2023-05-02T21:42:42.499Z,6
2023-05-02T21:47:42.542Z,6
2023-05-02T21:52:42.526Z,6.2
2023-05-02T21:57:42.555Z,6.2
2023-05-02T22:02:42.613Z,6.2
2023-05-02T22:07:42.563Z,6.3
2023-05-02T22:12:42.514Z,6.5
2023-05-02T22:17:42.555Z,6.6
2023-05-02T22:22:42.527Z,6.8
2023-05-02T22:27:42.496Z,7.1
2023-05-02T22:32:42.535Z,7.1
2023-05-02T22:37:42.530Z,8.4
2023-05-02T22:42:42.528Z,8.5
2023-05-02T22:47:42.560Z,8.5
2023-05-02T22:52:42.567Z,8.5
2023-05-02T22:57:42.516Z,8.4
2023-05-02T23:02:42.625Z,8.4
2023-05-02T23:07:42.596Z,8.4
2023-05-02T23:12:42.512Z,8.1
2023-05-02T23:17:42.560Z,8.1
2023-05-02T23:22:42.591Z,8
2023-05-02T23:27:42.586Z,8
2023-05-02T23:32:42.549Z,8.2
2023-05-02T23:37:42.539Z,8
2023-05-02T23:42:42.557Z,8.2
2023-05-02T23:47:42.634Z,8.2
2023-05-02T23:52:42.545Z,7.9
2023-05-02T23:57:42.504Z,8.1
